createdAt,value
2017-09-17T00:00:15.589Z,14.14
2017-09-17T00:01:15.927Z,14.15
2017-09-17T00:02:16.270Z,14.07
2017-09-17T00:03:16.287Z,14.07
2017-09-17T00:04:15.866Z,14.07
2017-09-17T00:05:16.005Z,14.04
2017-09-17T00:06:16.350Z,13.99
2017-09-17T00:07:16.041Z,14
2017-09-17T00:08:16.162Z,14.03
2017-09-17T00:09:15.752Z,14
2017-09-17T00:10:16.095Z,14.05
2017-09-17T00:11:15.790Z,13.99
2017-09-17T00:12:15.809Z,13.89
2017-09-17T00:13:16.156Z,13.95
2017-09-17T00:14:16.586Z,14.03
2017-09-17T00:15:16.588Z,13.97
2017-09-17T00:16:16.206Z,13.97
2017-09-17T00:17:16.544Z,13.92
2017-09-17T00:18:16.267Z,13.93
2017-09-17T00:19:16.258Z,13.92
2017-09-17T00:20:15.958Z,13.92
2017-09-17T00:21:16.718Z,13.85
2017-09-17T00:22:16.314Z,13.86
2017-09-17T00:23:16.430Z,13.87
2017-09-17T00:24:16.429Z,13.86
2017-09-17T00:25:16.044Z,13.86
2017-09-17T00:26:16.409Z,13.86
2017-09-17T00:27:16.083Z,13.86
2017-09-17T00:28:16.513Z,13.9
2017-09-17T00:29:16.857Z,13.78
2017-09-17T00:30:16.460Z,13.81
2017-09-17T00:31:16.801Z,13.78
2017-09-17T00:32:16.494Z,13.79
2017-09-17T00:33:16.516Z,13.77
2017-09-17T00:34:16.851Z,13.78
2017-09-17T00:35:16.553Z,13.79
2017-09-17T00:36:17.194Z,13.78
2017-09-17T00:37:16.739Z,13.65
2017-09-17T00:38:16.728Z,13.78
2017-09-17T00:39:16.727Z,13.78
2017-09-17T00:40:16.740Z,13.75
2017-09-17T00:41:16.561Z,13.71
2017-09-17T00:42:17.206Z,13.72
2017-09-17T00:43:16.869Z,13.68
2017-09-17T00:44:16.712Z,13.72
2017-09-17T00:45:16.869Z,13.67
2017-09-17T00:46:17.197Z,13.68
2017-09-17T00:47:16.565Z,13.68
2017-09-17T00:48:16.560Z,13.7
2017-09-17T00:49:17.253Z,13.67
2017-09-17T00:50:16.914Z,13.65
2017-09-17T00:51:16.960Z,13.59
2017-09-17T00:52:16.937Z,13.57
2017-09-17T00:53:16.626Z,13.59
2017-09-17T00:54:17.272Z,13.54
2017-09-17T00:55:16.917Z,13.57
2017-09-17T00:56:16.933Z,13.6
2017-09-17T00:57:17.273Z,13.56
2017-09-17T00:58:17.295Z,13.53
2017-09-17T00:59:17.315Z,13.5
2017-09-17T01:00:17.010Z,13.54
2017-09-17T01:01:17.031Z,13.59
2017-09-17T01:02:17.376Z,13.49
2017-09-17T01:03:17.062Z,13.5
2017-09-17T01:04:17.085Z,13.5
2017-09-17T01:05:17.413Z,13.37
2017-09-17T01:06:17.448Z,13.49
2017-09-17T01:07:17.451Z,13.49
2017-09-17T01:08:17.154Z,13.44
2017-09-17T01:09:17.492Z,13.41
2017-09-17T01:10:17.506Z,13.37
2017-09-17T01:11:17.529Z,13.37
2017-09-17T01:12:17.224Z,13.37
2017-09-17T01:13:16.925Z,13.3
2017-09-17T01:14:16.942Z,13.37
2017-09-17T01:15:16.964Z,13.31
2017-09-17T01:16:17.625Z,13.28
2017-09-17T01:17:17.636Z,13.3
2017-09-17T01:18:17.010Z,13.33
2017-09-17T01:19:17.671Z,13.37
2017-09-17T01:20:17.377Z,13.35
2017-09-17T01:21:17.388Z,13.25
2017-09-17T01:22:17.403Z,13.28
2017-09-17T01:23:17.759Z,13.18
2017-09-17T01:24:17.758Z,13.18
2017-09-17T01:25:17.131Z,13.23
2017-09-17T01:26:17.481Z,13.16
2017-09-17T01:27:17.490Z,13.22
2017-09-17T01:28:17.842Z,13.2
2017-09-17T01:29:17.542Z,13.25
2017-09-17T01:30:17.242Z,13.19
2017-09-17T01:31:17.567Z,13.12
2017-09-17T01:32:17.913Z,13.09
2017-09-17T01:33:17.926Z,13.19
2017-09-17T01:34:17.621Z,13.18
2017-09-17T01:35:17.960Z,13.16
2017-09-17T01:36:17.979Z,13.18
2017-09-17T01:37:17.346Z,13.15
2017-09-17T01:38:18.006Z,13.05
2017-09-17T01:39:18.034Z,13.04
2017-09-17T01:40:18.043Z,13.13
2017-09-17T01:41:18.067Z,13.08
2017-09-17T01:42:18.086Z,13.19
2017-09-17T01:43:17.779Z,12.98
2017-09-17T01:44:17.801Z,13.05
2017-09-17T01:45:17.493Z,12.98
2017-09-17T01:46:17.837Z,13.08
2017-09-17T01:47:17.852Z,13.04
2017-09-17T01:48:17.866Z,13.04
2017-09-17T01:49:17.890Z,12.97
2017-09-17T01:50:17.907Z,13.04
2017-09-17T01:51:17.929Z,13
2017-09-17T01:52:17.945Z,12.95
2017-09-17T01:53:17.630Z,13
2017-09-17T01:54:17.974Z,13.01
2017-09-17T01:55:18.316Z,13.03
2017-09-17T01:56:18.326Z,13.01
2017-09-17T01:57:18.362Z,13.03
2017-09-17T01:58:18.375Z,12.97
2017-09-17T01:59:18.066Z,12.95
2017-09-17T02:00:18.406Z,12.94
2017-09-17T02:01:18.109Z,12.97
2017-09-17T02:02:18.432Z,12.91
2017-09-17T02:03:18.134Z,12.91
2017-09-17T02:04:18.470Z,12.91
2017-09-17T02:05:18.489Z,12.93
2017-09-17T02:06:18.190Z,12.91
2017-09-17T02:07:18.201Z,12.91
2017-09-17T02:08:18.594Z,12.95
2017-09-17T02:09:18.242Z,12.86
2017-09-17T02:10:18.582Z,12.82
2017-09-17T02:11:18.602Z,12.86
2017-09-17T02:12:17.968Z,12.86
2017-09-17T02:13:18.633Z,12.85
2017-09-17T02:14:18.320Z,12.83
2017-09-17T02:15:18.765Z,12.86
2017-09-17T02:16:18.037Z,12.86
2017-09-17T02:17:18.700Z,12.79
2017-09-17T02:18:18.081Z,12.82
2017-09-17T02:19:18.419Z,12.76
2017-09-17T02:20:18.520Z,12.82
2017-09-17T02:21:18.453Z,12.79
2017-09-17T02:22:18.786Z,12.78
2017-09-17T02:23:18.813Z,12.78
2017-09-17T02:24:18.495Z,12.76
2017-09-17T02:25:18.514Z,12.67
2017-09-17T02:26:18.540Z,12.68
2017-09-17T02:27:18.885Z,12.68
2017-09-17T02:28:18.577Z,12.76
2017-09-17T02:29:18.905Z,12.76
2017-09-17T02:30:18.280Z,12.79
2017-09-17T02:31:18.949Z,12.64
2017-09-17T02:32:18.706Z,12.65
2017-09-17T02:33:18.658Z,12.61
2017-09-17T02:34:18.357Z,12.67
2017-09-17T02:35:18.692Z,12.58
2017-09-17T02:36:18.398Z,12.67
2017-09-17T02:37:18.735Z,12.65
2017-09-17T02:38:19.074Z,12.64
2017-09-17T02:39:19.117Z,12.62
2017-09-17T02:40:18.778Z,12.62
2017-09-17T02:41:18.794Z,12.64
2017-09-17T02:42:18.809Z,12.62
2017-09-17T02:43:19.162Z,12.65
2017-09-17T02:44:19.169Z,12.67
2017-09-17T02:45:19.197Z,12.55
2017-09-17T02:46:19.209Z,12.57
2017-09-17T02:47:18.583Z,12.65
2017-09-17T02:48:19.245Z,12.5
2017-09-17T02:49:19.259Z,12.57
2017-09-17T02:50:19.273Z,12.53
2017-09-17T02:51:19.301Z,12.53
2017-09-17T02:52:18.996Z,12.53
2017-09-17T02:53:19.349Z,12.54
2017-09-17T02:54:19.339Z,12.47
2017-09-17T02:55:19.040Z,12.49
2017-09-17T02:56:19.378Z,12.5
2017-09-17T02:57:19.078Z,12.45
2017-09-17T02:58:19.098Z,12.46
2017-09-17T02:59:19.111Z,12.53
2017-09-17T03:00:19.130Z,12.45
2017-09-17T03:01:18.825Z,12.49
2017-09-17T03:02:19.483Z,12.43
2017-09-17T03:03:19.496Z,12.4
2017-09-17T03:04:19.196Z,12.5
2017-09-17T03:05:19.545Z,12.47
2017-09-17T03:06:19.230Z,12.43
2017-09-17T03:07:19.249Z,12.37
2017-09-17T03:08:19.595Z,12.42
2017-09-17T03:09:19.605Z,12.32
2017-09-17T03:10:19.307Z,12.36
2017-09-17T03:11:19.650Z,12.42
2017-09-17T03:12:19.019Z,12.36
2017-09-17T03:13:19.030Z,12.39
2017-09-17T03:14:19.385Z,12.43
2017-09-17T03:15:19.080Z,12.29
2017-09-17T03:16:19.405Z,12.35
2017-09-17T03:17:19.753Z,12.39
2017-09-17T03:18:19.771Z,12.4
2017-09-17T03:19:19.783Z,12.36
2017-09-17T03:20:19.799Z,12.39
2017-09-17T03:21:19.809Z,12.39
2017-09-17T03:22:19.513Z,12.4
2017-09-17T03:23:19.529Z,12.37
2017-09-17T03:24:19.869Z,12.37
2017-09-17T03:25:19.878Z,12.31
2017-09-17T03:26:19.250Z,12.32
2017-09-17T03:27:19.267Z,12.32
2017-09-17T03:28:19.285Z,12.24
2017-09-17T03:29:19.625Z,12.25
2017-09-17T03:30:20.095Z,12.25
2017-09-17T03:31:19.671Z,12.35
2017-09-17T03:32:19.677Z,12.27
2017-09-17T03:33:19.711Z,12.31
2017-09-17T03:34:20.046Z,12.25
2017-09-17T03:35:20.080Z,12.27
2017-09-17T03:36:20.081Z,12.28
2017-09-17T03:37:19.762Z,12.25
2017-09-17T03:38:20.098Z,12.28
2017-09-17T03:39:20.123Z,12.25
2017-09-17T03:40:20.154Z,12.25
2017-09-17T03:41:19.829Z,12.25
2017-09-17T03:42:20.205Z,12.21
2017-09-17T03:43:20.191Z,12.29
2017-09-17T03:44:19.882Z,12.24
2017-09-17T03:45:20.225Z,12.27
2017-09-17T03:46:20.247Z,12.22
2017-09-17T03:47:20.258Z,12.27
2017-09-17T03:48:20.274Z,12.22
2017-09-17T03:49:19.966Z,12.2
2017-09-17T03:50:20.324Z,12.2
2017-09-17T03:51:20.331Z,12.12
2017-09-17T03:52:20.023Z,12.22
2017-09-17T03:53:19.722Z,12.12
2017-09-17T03:54:20.057Z,12.09
2017-09-17T03:55:20.076Z,12.12
2017-09-17T03:56:19.763Z,12.12
2017-09-17T03:57:20.449Z,12.2
2017-09-17T03:58:20.125Z,12.09
2017-09-17T03:59:20.131Z,12.03
2017-09-17T04:00:20.477Z,12.1
2017-09-17T04:01:20.170Z,12.06
2017-09-17T04:02:20.520Z,12.06
2017-09-17T04:03:20.531Z,12.09
2017-09-17T04:04:20.219Z,12.13
2017-09-17T04:05:20.563Z,12.12
2017-09-17T04:06:20.583Z,12.06
2017-09-17T04:07:20.600Z,12.1
2017-09-17T04:08:20.608Z,12.06
2017-09-17T04:09:20.312Z,12.09
2017-09-17T04:10:20.645Z,12
2017-09-17T04:11:20.343Z,12.06
2017-09-17T04:12:20.688Z,12.02
2017-09-17T04:13:20.371Z,12.09
2017-09-17T04:14:20.386Z,12.07
2017-09-17T04:15:20.412Z,11.99
2017-09-17T04:16:20.423Z,12.02
2017-09-17T04:17:20.445Z,12.09
2017-09-17T04:18:20.789Z,12
2017-09-17T04:19:20.475Z,12.04
2017-09-17T04:20:20.497Z,12.02
2017-09-17T04:21:20.509Z,12.03
2017-09-17T04:22:20.529Z,12
2017-09-17T04:23:20.872Z,11.99
2017-09-17T04:24:20.241Z,11.9
2017-09-17T04:25:20.903Z,12.02
2017-09-17T04:26:20.608Z,11.91
2017-09-17T04:27:20.934Z,11.97
2017-09-17T04:28:20.633Z,11.95
2017-09-17T04:29:20.961Z,11.91
2017-09-17T04:30:20.979Z,11.97
2017-09-17T04:31:20.674Z,11.88
2017-09-17T04:32:21.056Z,11.99
2017-09-17T04:33:20.386Z,11.91
2017-09-17T04:34:20.734Z,11.88
2017-09-17T04:35:20.747Z,11.88
2017-09-17T04:36:20.768Z,11.86
2017-09-17T04:37:20.784Z,11.87
2017-09-17T04:38:21.125Z,11.87
2017-09-17T04:39:20.859Z,11.91
2017-09-17T04:40:20.833Z,11.83
2017-09-17T04:41:20.843Z,11.86
2017-09-17T04:42:20.860Z,11.83
2017-09-17T04:43:21.206Z,11.81
2017-09-17T04:44:20.899Z,11.8
2017-09-17T04:45:20.910Z,11.77
2017-09-17T04:46:20.931Z,11.68
2017-09-17T04:47:21.273Z,11.7
2017-09-17T04:48:20.969Z,11.77
2017-09-17T04:49:21.308Z,11.7
2017-09-17T04:50:21.320Z,11.81
2017-09-17T04:51:21.006Z,11.78
2017-09-17T04:52:21.034Z,11.8
2017-09-17T04:53:21.370Z,11.77
2017-09-17T04:54:21.387Z,11.78
2017-09-17T04:55:21.082Z,11.81
2017-09-17T04:56:21.421Z,11.78
2017-09-17T04:57:21.119Z,11.8
2017-09-17T04:58:21.135Z,11.78
2017-09-17T04:59:21.147Z,11.77
2017-09-17T05:00:21.488Z,11.77
2017-09-17T05:01:21.513Z,11.72
2017-09-17T05:02:21.520Z,11.78
2017-09-17T05:03:21.223Z,11.77
2017-09-17T05:04:20.910Z,11.83
2017-09-17T05:05:21.568Z,11.7
2017-09-17T05:06:20.937Z,11.7
2017-09-17T05:07:20.954Z,11.75
2017-09-17T05:08:21.302Z,11.7
2017-09-17T05:09:21.321Z,11.7
2017-09-17T05:10:21.334Z,11.72
2017-09-17T05:11:21.675Z,11.63
2017-09-17T05:12:21.359Z,11.75
2017-09-17T05:13:21.382Z,11.69
2017-09-17T05:14:21.401Z,11.78
2017-09-17T05:15:21.094Z,11.63
2017-09-17T05:16:21.435Z,11.7
2017-09-17T05:17:21.441Z,11.68
2017-09-17T05:18:21.782Z,11.66
2017-09-17T05:19:21.473Z,11.69
2017-09-17T05:20:21.816Z,11.72
2017-09-17T05:21:21.845Z,11.66
2017-09-17T05:22:21.526Z,11.7
2017-09-17T05:23:21.876Z,11.75
2017-09-17T05:24:21.237Z,11.7
2017-09-17T05:25:21.253Z,11.75
2017-09-17T05:26:21.597Z,11.77
2017-09-17T05:27:21.616Z,11.75
2017-09-17T05:28:21.625Z,11.7
2017-09-17T05:29:21.971Z,11.77
2017-09-17T05:30:21.663Z,11.7
2017-09-17T05:31:21.688Z,11.68
2017-09-17T05:32:21.704Z,11.77
2017-09-17T05:33:22.031Z,11.7
2017-09-17T05:34:21.734Z,11.72
2017-09-17T05:35:22.071Z,11.68
2017-09-17T05:36:21.765Z,11.69
2017-09-17T05:37:22.102Z,11.7
2017-09-17T05:38:22.121Z,11.69
2017-09-17T05:39:21.809Z,11.68
2017-09-17T05:40:21.829Z,11.68
2017-09-17T05:41:21.845Z,11.7
2017-09-17T05:42:22.194Z,11.69
2017-09-17T05:43:21.899Z,11.73
2017-09-17T05:44:21.894Z,11.72
2017-09-17T05:45:22.238Z,11.7
2017-09-17T05:46:21.934Z,11.7
2017-09-17T05:47:21.977Z,11.72
2017-09-17T05:48:22.283Z,11.77
2017-09-17T05:49:21.982Z,11.73
2017-09-17T05:50:21.995Z,11.73
2017-09-17T05:51:22.007Z,11.75
2017-09-17T05:52:21.722Z,11.72
2017-09-17T05:53:22.045Z,11.68
2017-09-17T05:54:22.389Z,11.63
2017-09-17T05:55:22.074Z,11.65
2017-09-17T05:56:22.092Z,11.73
2017-09-17T05:57:22.111Z,11.7
2017-09-17T05:58:22.122Z,11.73
2017-09-17T05:59:22.146Z,11.75
2017-09-17T06:00:22.160Z,11.69
2017-09-17T06:01:22.182Z,11.66
2017-09-17T06:02:22.204Z,11.69
2017-09-17T06:03:21.901Z,11.65
2017-09-17T06:04:21.925Z,11.7
2017-09-17T06:05:21.920Z,11.77
2017-09-17T06:06:22.282Z,11.75
2017-09-17T06:07:22.279Z,11.73
2017-09-17T06:08:22.292Z,11.8
2017-09-17T06:09:21.987Z,11.73
2017-09-17T06:10:22.380Z,11.77
2017-09-17T06:11:22.346Z,11.77
2017-09-17T06:12:22.356Z,11.78
2017-09-17T06:13:22.372Z,11.77
2017-09-17T06:14:22.071Z,11.81
2017-09-17T06:15:22.410Z,11.68
2017-09-17T06:16:22.417Z,11.86
2017-09-17T06:17:22.437Z,11.84
2017-09-17T06:18:22.774Z,11.87
2017-09-17T06:19:22.476Z,11.88
2017-09-17T06:20:22.815Z,11.95
2017-09-17T06:21:22.510Z,11.9
2017-09-17T06:22:22.843Z,11.97
2017-09-17T06:23:22.542Z,12
2017-09-17T06:24:22.560Z,11.99
2017-09-17T06:25:22.899Z,12.12
2017-09-17T06:26:22.914Z,12.06
2017-09-17T06:27:22.288Z,12.06
2017-09-17T06:28:22.624Z,12.1
2017-09-17T06:29:22.317Z,12.15
2017-09-17T06:30:22.391Z,12.13
2017-09-17T06:31:22.350Z,12.24
2017-09-17T06:32:22.691Z,12.21
2017-09-17T06:33:22.699Z,12.25
2017-09-17T06:34:22.395Z,12.29
2017-09-17T06:35:22.740Z,12.25
2017-09-17T06:36:22.434Z,12.24
2017-09-17T06:37:22.774Z,12.25
2017-09-17T06:38:22.463Z,12.37
2017-09-17T06:39:23.126Z,12.36
2017-09-17T06:40:23.162Z,12.31
2017-09-17T06:41:22.524Z,12.45
2017-09-17T06:42:22.854Z,12.43
2017-09-17T06:43:22.548Z,12.47
2017-09-17T06:44:23.209Z,12.5
2017-09-17T06:45:23.236Z,12.5
2017-09-17T06:46:23.253Z,12.54
2017-09-17T06:47:23.269Z,12.6
2017-09-17T06:48:22.955Z,12.6
2017-09-17T06:49:23.297Z,12.6
2017-09-17T06:50:22.662Z,12.58
2017-09-17T06:51:23.331Z,12.64
2017-09-17T06:52:23.029Z,12.72
2017-09-17T06:53:22.719Z,12.83
2017-09-17T06:54:23.485Z,12.85
2017-09-17T06:55:23.070Z,12.86
2017-09-17T06:56:22.769Z,12.98
2017-09-17T06:57:23.108Z,12.93
2017-09-17T06:58:23.438Z,13.03
2017-09-17T06:59:22.818Z,13.04
2017-09-17T07:00:23.162Z,13.03
2017-09-17T07:01:23.176Z,13.01
2017-09-17T07:02:22.868Z,13.19
2017-09-17T07:03:23.200Z,13.2
2017-09-17T07:04:23.539Z,13.18
2017-09-17T07:05:23.580Z,13.31
2017-09-17T07:06:23.575Z,13.39
2017-09-17T07:07:23.275Z,13.42
2017-09-17T07:08:23.630Z,13.5
2017-09-17T07:09:23.628Z,13.6
2017-09-17T07:10:23.645Z,13.6
2017-09-17T07:11:23.348Z,13.68
2017-09-17T07:12:23.357Z,13.72
2017-09-17T07:13:23.379Z,13.74
2017-09-17T07:14:23.385Z,13.79
2017-09-17T07:15:23.405Z,13.9
2017-09-17T07:16:23.460Z,13.92
2017-09-17T07:17:23.439Z,13.92
2017-09-17T07:18:23.463Z,13.93
2017-09-17T07:19:23.807Z,14.03
2017-09-17T07:20:23.495Z,14.08
2017-09-17T07:21:23.190Z,14.08
2017-09-17T07:22:23.525Z,14.2
2017-09-17T07:23:23.874Z,14.17
2017-09-17T07:24:23.238Z,14.23
2017-09-17T07:25:23.906Z,14.25
2017-09-17T07:26:23.935Z,14.29
2017-09-17T07:27:23.292Z,14.28
2017-09-17T07:28:24.164Z,14.33
2017-09-17T07:29:23.850Z,14.36
2017-09-17T07:30:23.669Z,14.4
2017-09-17T07:31:24.014Z,14.41
2017-09-17T07:32:23.704Z,14.5
2017-09-17T07:33:23.716Z,14.41
2017-09-17T07:34:23.738Z,14.51
2017-09-17T07:35:24.075Z,14.53
2017-09-17T07:36:24.095Z,14.47
2017-09-17T07:37:24.114Z,14.5
2017-09-17T07:38:24.135Z,14.65
2017-09-17T07:39:24.151Z,14.65
2017-09-17T07:40:24.156Z,14.7
2017-09-17T07:41:23.862Z,14.69
2017-09-17T07:42:24.210Z,14.7
2017-09-17T07:43:23.898Z,14.78
2017-09-17T07:44:23.909Z,14.79
2017-09-17T07:45:23.945Z,14.84
2017-09-17T07:46:23.942Z,14.94
2017-09-17T07:47:23.963Z,15
2017-09-17T07:48:24.418Z,14.91
2017-09-17T07:49:23.704Z,14.96
2017-09-17T07:50:23.704Z,15.03
2017-09-17T07:51:24.034Z,15.15
2017-09-17T07:52:24.377Z,15.14
2017-09-17T07:53:24.449Z,15.25
2017-09-17T07:54:24.447Z,15.28
2017-09-17T07:55:24.120Z,15.17
2017-09-17T07:56:24.454Z,15.31
2017-09-17T07:57:24.458Z,15.33
2017-09-17T07:58:24.161Z,15.36
2017-09-17T07:59:23.852Z,15.49
2017-09-17T08:00:24.598Z,15.52
2017-09-17T08:01:24.533Z,15.57
2017-09-17T08:02:24.680Z,15.64
2017-09-17T08:03:24.247Z,15.62
2017-09-17T08:04:24.269Z,15.72
2017-09-17T08:05:24.284Z,15.75
2017-09-17T08:06:23.983Z,15.73
2017-09-17T08:07:24.666Z,15.88
2017-09-17T08:08:24.064Z,15.94
2017-09-17T08:09:24.687Z,15.91
2017-09-17T08:10:24.384Z,15.94
2017-09-17T08:11:24.072Z,15.98
2017-09-17T08:12:24.436Z,16.09
2017-09-17T08:13:24.761Z,16.15
2017-09-17T08:14:24.120Z,16.2
2017-09-17T08:15:24.798Z,16.26
2017-09-17T08:16:24.162Z,16.26
2017-09-17T08:17:24.501Z,16.39
2017-09-17T08:18:24.601Z,16.41
2017-09-17T08:19:24.210Z,16.49
2017-09-17T08:20:24.597Z,16.47
2017-09-17T08:21:24.899Z,16.53
2017-09-17T08:22:24.912Z,16.64
2017-09-17T08:23:24.941Z,16.6
2017-09-17T08:24:24.948Z,16.72
2017-09-17T08:25:24.654Z,16.78
2017-09-17T08:26:24.344Z,16.83
2017-09-17T08:27:24.815Z,16.84
2017-09-17T08:28:24.704Z,16.83
2017-09-17T08:29:24.727Z,16.93
2017-09-17T08:30:24.415Z,16.87
2017-09-17T08:31:24.768Z,16.91
2017-09-17T08:32:24.778Z,16.96
2017-09-17T08:33:24.798Z,16.97
2017-09-17T08:34:25.150Z,16.87
2017-09-17T08:35:25.157Z,17.02
2017-09-17T08:36:24.856Z,17.04
2017-09-17T08:37:24.872Z,16.86
2017-09-17T08:38:24.894Z,16.89
2017-09-17T08:39:25.236Z,17.06
2017-09-17T08:40:25.249Z,17.11
2017-09-17T08:41:25.273Z,17.11
2017-09-17T08:42:25.293Z,17.26
2017-09-17T08:43:24.982Z,17.22
2017-09-17T08:44:24.685Z,17.22
2017-09-17T08:45:25.370Z,17.33
2017-09-17T08:46:25.045Z,17.34
2017-09-17T08:47:25.060Z,17.38
2017-09-17T08:48:25.074Z,17.33
2017-09-17T08:49:25.105Z,17.56
2017-09-17T08:50:25.118Z,17.54
2017-09-17T08:51:25.460Z,17.57
2017-09-17T08:52:25.484Z,17.52
2017-09-17T08:53:24.854Z,17.65
2017-09-17T08:54:25.192Z,17.65
2017-09-17T08:55:24.996Z,17.7
2017-09-17T08:56:25.559Z,17.8
2017-09-17T08:57:25.284Z,17.71
2017-09-17T08:58:25.273Z,17.7
2017-09-17T08:59:25.293Z,17.71
2017-09-17T09:00:25.404Z,17.8
2017-09-17T09:01:25.010Z,17.72
2017-09-17T09:02:25.728Z,17.76
2017-09-17T09:03:25.686Z,17.86
2017-09-17T09:04:25.389Z,17.87
2017-09-17T09:05:25.727Z,17.85
2017-09-17T09:06:25.103Z,17.98
2017-09-17T09:07:25.446Z,18.07
2017-09-17T09:08:25.468Z,18.08
2017-09-17T09:09:25.808Z,18.19
2017-09-17T09:10:25.589Z,18.2
2017-09-17T09:11:25.846Z,18.16
2017-09-17T09:12:25.309Z,18.22
2017-09-17T09:13:25.885Z,18.35
2017-09-17T09:14:25.596Z,18.37
2017-09-17T09:15:25.283Z,18.35
2017-09-17T09:16:25.643Z,18.44
2017-09-17T09:17:25.963Z,18.5
2017-09-17T09:18:25.989Z,18.55
2017-09-17T09:19:25.710Z,18.6
2017-09-17T09:20:25.706Z,18.63
2017-09-17T09:21:25.394Z,18.73
2017-09-17T09:22:26.079Z,18.73
2017-09-17T09:23:26.083Z,18.74
2017-09-17T09:24:26.099Z,18.75
2017-09-17T09:25:25.797Z,18.77
2017-09-17T09:26:25.502Z,18.86
2017-09-17T09:27:25.841Z,18.9
2017-09-17T09:28:26.178Z,18.93
2017-09-17T09:29:25.876Z,18.9
2017-09-17T09:30:25.904Z,18.99
2017-09-17T09:31:25.918Z,19.08
2017-09-17T09:32:25.945Z,19.19
2017-09-17T09:33:25.644Z,19.24
2017-09-17T09:34:26.429Z,19.3
2017-09-17T09:35:25.992Z,19.34
2017-09-17T09:36:25.691Z,19.3
2017-09-17T09:37:26.038Z,19.34
2017-09-17T09:38:25.732Z,19.47
2017-09-17T09:39:25.761Z,19.51
2017-09-17T09:40:26.091Z,19.49
2017-09-17T09:41:26.440Z,19.66
2017-09-17T09:42:26.466Z,19.59
2017-09-17T09:43:26.166Z,19.63
2017-09-17T09:44:26.182Z,19.63
2017-09-17T09:45:25.873Z,19.64
2017-09-17T09:46:26.233Z,19.77
2017-09-17T09:47:26.256Z,19.86
2017-09-17T09:48:26.280Z,19.85
2017-09-17T09:49:26.281Z,19.86
2017-09-17T09:50:26.628Z,19.92
2017-09-17T09:51:26.653Z,20.04
2017-09-17T09:52:26.337Z,20.09
2017-09-17T09:53:26.041Z,20.16
2017-09-17T09:54:26.383Z,20.19
2017-09-17T09:55:26.730Z,20.29
2017-09-17T09:56:26.746Z,20.25
2017-09-17T09:57:26.440Z,20.31
2017-09-17T09:58:26.468Z,20.47
2017-09-17T09:59:26.810Z,20.48
2017-09-17T10:00:26.508Z,20.48
2017-09-17T10:01:26.848Z,20.55
2017-09-17T10:02:26.864Z,20.59
2017-09-17T10:03:26.240Z,20.59
2017-09-17T10:04:26.587Z,20.62
2017-09-17T10:05:26.610Z,20.72
2017-09-17T10:06:26.620Z,20.75
2017-09-17T10:07:26.657Z,20.81
2017-09-17T10:08:26.674Z,20.75
2017-09-17T10:09:26.365Z,20.92
2017-09-17T10:10:26.384Z,20.81
2017-09-17T10:11:26.729Z,20.88
2017-09-17T10:12:26.901Z,20.9
2017-09-17T10:13:26.795Z,20.92
2017-09-17T10:14:26.795Z,21.02
2017-09-17T10:15:26.832Z,21
2017-09-17T10:16:26.939Z,20.97
2017-09-17T10:17:27.190Z,20.97
2017-09-17T10:18:26.880Z,21.05
2017-09-17T10:19:27.216Z,21.15
2017-09-17T10:20:27.250Z,21.17
2017-09-17T10:21:26.950Z,21.24
2017-09-17T10:22:27.292Z,21.25
2017-09-17T10:23:26.664Z,21.3
2017-09-17T10:24:26.682Z,21.35
2017-09-17T10:25:26.706Z,21.39
2017-09-17T10:26:26.727Z,21.4
2017-09-17T10:27:27.512Z,21.43
2017-09-17T10:28:27.413Z,21.37
2017-09-17T10:29:26.794Z,21.54
2017-09-17T10:30:27.139Z,21.6
2017-09-17T10:31:27.160Z,21.52
2017-09-17T10:32:27.564Z,21.66
2017-09-17T10:33:27.106Z,21.7
2017-09-17T10:34:27.226Z,21.69
2017-09-17T10:35:27.571Z,21.73
2017-09-17T10:36:26.941Z,21.82
2017-09-17T10:37:27.288Z,21.96
2017-09-17T10:38:27.400Z,21.93
2017-09-17T10:39:27.335Z,21.95
2017-09-17T10:40:27.701Z,22.06
2017-09-17T10:41:27.050Z,21.98
2017-09-17T10:42:27.721Z,21.98
2017-09-17T10:43:27.092Z,22.06
2017-09-17T10:44:27.766Z,22.11
2017-09-17T10:45:27.134Z,22.14
2017-09-17T10:46:27.158Z,22.22
2017-09-17T10:47:27.510Z,22.3
2017-09-17T10:48:27.532Z,22.29
2017-09-17T10:49:27.576Z,22.38
2017-09-17T10:50:27.894Z,22.33
2017-09-17T10:51:27.600Z,22.33
2017-09-17T10:52:27.641Z,22.41
2017-09-17T10:53:27.961Z,22.44
2017-09-17T10:54:27.974Z,22.35
2017-09-17T10:55:27.361Z,22.48
2017-09-17T10:56:28.047Z,22.47
2017-09-17T10:57:28.050Z,22.51
2017-09-17T10:58:28.155Z,22.65
2017-09-17T10:59:27.793Z,22.55
2017-09-17T11:00:27.802Z,22.66
2017-09-17T11:01:28.343Z,22.66
2017-09-17T11:02:27.840Z,22.72
2017-09-17T11:03:28.190Z,22.83
2017-09-17T11:04:28.203Z,22.78
2017-09-17T11:05:28.238Z,22.93
2017-09-17T11:06:27.924Z,22.87
2017-09-17T11:07:27.954Z,22.88
2017-09-17T11:08:28.288Z,22.99
2017-09-17T11:09:28.314Z,22.93
2017-09-17T11:10:28.340Z,22.99
2017-09-17T11:11:28.038Z,23.12
2017-09-17T11:12:28.390Z,23.15
2017-09-17T11:13:28.412Z,23.13
2017-09-17T11:14:27.785Z,23.15
2017-09-17T11:15:28.133Z,23.24
2017-09-17T11:16:28.148Z,23.2
2017-09-17T11:17:28.171Z,23.2
2017-09-17T11:18:28.195Z,23.28
2017-09-17T11:19:28.549Z,23.37
2017-09-17T11:20:28.375Z,23.4
2017-09-17T11:21:28.263Z,23.44
2017-09-17T11:22:28.132Z,23.51
2017-09-17T11:23:28.312Z,23.56
2017-09-17T11:24:28.333Z,23.61
2017-09-17T11:25:28.036Z,23.61
2017-09-17T11:26:28.700Z,23.65
2017-09-17T11:27:28.400Z,23.71
2017-09-17T11:28:28.756Z,23.81
2017-09-17T11:29:28.453Z,23.73
2017-09-17T11:30:28.794Z,23.77
2017-09-17T11:31:28.172Z,23.76
2017-09-17T11:32:28.850Z,23.92
2017-09-17T11:33:28.545Z,23.88
2017-09-17T11:34:28.566Z,23.96
2017-09-17T11:35:28.266Z,23.99
2017-09-17T11:36:28.288Z,24.02
2017-09-17T11:37:28.633Z,24.13
2017-09-17T11:38:28.662Z,24.02
2017-09-17T11:39:28.361Z,24.14
2017-09-17T11:40:28.702Z,24.18
2017-09-17T11:41:28.732Z,24.18
2017-09-17T11:42:28.751Z,24.26
2017-09-17T11:43:28.451Z,24.29
2017-09-17T11:44:28.557Z,24.36
2017-09-17T11:45:28.815Z,24.42
2017-09-17T11:46:28.849Z,24.42
2017-09-17T11:47:28.870Z,24.48
2017-09-17T11:48:29.215Z,24.54
2017-09-17T11:49:28.923Z,24.58
2017-09-17T11:50:28.939Z,24.54
2017-09-17T11:51:28.960Z,24.68
2017-09-17T11:52:29.307Z,24.6
2017-09-17T11:53:29.012Z,24.63
2017-09-17T11:54:28.708Z,24.6
2017-09-17T11:55:29.390Z,24.65
2017-09-17T11:56:29.083Z,24.78
2017-09-17T11:57:29.101Z,24.73
2017-09-17T11:58:29.133Z,24.77
2017-09-17T11:59:29.152Z,24.76
2017-09-17T12:00:28.847Z,24.7
2017-09-17T12:01:28.904Z,24.74
2017-09-17T12:02:29.555Z,24.8
2017-09-17T12:03:29.381Z,24.88
2017-09-17T12:04:29.390Z,25.01
2017-09-17T12:05:29.621Z,24.96
2017-09-17T12:06:29.455Z,24.98
2017-09-17T12:07:29.024Z,24.98
2017-09-17T12:08:29.044Z,25.08
2017-09-17T12:09:29.071Z,25.11
2017-09-17T12:10:29.092Z,25.07
2017-09-17T12:11:29.463Z,25.17
2017-09-17T12:12:29.803Z,25.22
2017-09-17T12:13:29.503Z,25.23
2017-09-17T12:14:29.839Z,25.35
2017-09-17T12:15:29.863Z,25.32
2017-09-17T12:16:29.777Z,25.41
2017-09-17T12:17:29.260Z,25.46
2017-09-17T12:18:29.287Z,25.55
2017-09-17T12:19:29.661Z,25.59
2017-09-17T12:20:29.335Z,25.58
2017-09-17T12:21:29.821Z,25.6
2017-09-17T12:22:30.031Z,25.51
2017-09-17T12:23:30.061Z,25.63
2017-09-17T12:24:30.237Z,25.72
2017-09-17T12:25:30.314Z,25.73
2017-09-17T12:26:30.178Z,25.69
2017-09-17T12:27:29.964Z,25.81
2017-09-17T12:28:30.183Z,25.91
2017-09-17T12:29:29.886Z,25.91
2017-09-17T12:30:30.236Z,25.98
2017-09-17T12:31:30.387Z,26.05
2017-09-17T12:32:30.288Z,26.07
2017-09-17T12:33:29.977Z,26.22
2017-09-17T12:34:29.684Z,26.21
2017-09-17T12:35:30.120Z,26.25
2017-09-17T12:36:30.383Z,26.38
2017-09-17T12:37:30.401Z,26.44
2017-09-17T12:38:30.105Z,26.45
2017-09-17T12:39:30.147Z,26.52
2017-09-17T12:40:30.156Z,26.6
2017-09-17T12:41:30.632Z,26.62
2017-09-17T12:42:30.527Z,26.6
2017-09-17T12:43:30.560Z,26.65
2017-09-17T12:44:30.258Z,26.74
2017-09-17T12:45:30.278Z,26.73
2017-09-17T12:46:30.630Z,26.84
2017-09-17T12:47:30.684Z,26.78
2017-09-17T12:48:30.481Z,26.81
2017-09-17T12:49:30.056Z,26.77
2017-09-17T12:50:30.412Z,26.78
2017-09-17T12:51:30.115Z,26.78
2017-09-17T12:52:30.459Z,26.78
2017-09-17T12:53:30.164Z,26.8
2017-09-17T12:54:30.833Z,26.77
2017-09-17T12:55:30.864Z,26.77
2017-09-17T12:56:30.889Z,26.78